Terminal Aerodrome Forecast
Issued by NWS Pittsburgh, PA

Home | Current Version | Previous Version | Text Only | Print | Product List | Glossary On
Versions: 1 2 3 4 5 6 7 8 9 10 11 12 13 14 15 16 17 18 19 20 21 22 23 24 25 26 27
797
FTUS41 KPBZ 131502 AAA
TAFPIT
TAF AMD
KPIT 131502Z 1315/1418 26010KT P6SM OVC050
     FM131800 26010G18KT P6SM OVC050
     FM132300 15006KT 2SM -SN OVC010
     FM141300 32012G20KT P6SM OVC010=

USA.gov is the U.S. government's official web portal to all federal, state and local government web resources and services.